Time;durP1;ratioP1;P1;durP2;ratioP2;P2;SDS_P1;SDS_P2;PMS_P1;PMS_P2;Temp;Humidity;BMP_temperature;BMP_pressure;BME280_temperature;BME280_humidity;BME280_pressure;Samples;Min_cycle;Max_cycle;Signal;HPM_P1;HPM_P2
2023/08/27 00:00:05;;;;;;;6.78;4.78;;;;;;;;;;5045786;28;20500;-53
2023/08/27 00:02:30;;;;;;;6.97;4.60;;;;;;;;;;5040941;28;20033;-54
2023/08/27 00:04:56;;;;;;;7.25;4.60;;;;;;;;;;5049165;28;20487;-57
2023/08/27 00:07:21;;;;;;;8.57;4.75;;;;;;;;;;5044642;28;20080;-56
2023/08/27 00:09:46;;;;;;;6.10;4.50;;;;;;;;;;5041553;28;20491;-55
2023/08/27 00:12:12;;;;;;;9.45;4.97;;;;;;;;;;5045645;28;20037;-52
2023/08/27 00:14:37;;;;;;;6.68;4.47;;;;;;;;;;5046544;28;20628;-53
2023/08/27 00:17:03;;;;;;;7.10;4.43;;;;;;;;;;5035081;28;20036;-55
2023/08/27 00:19:28;;;;;;;8.73;4.40;;;;;;;;;;5049455;28;20033;-52
2023/08/27 00:21:54;;;;;;;8.98;4.60;;;;;;;;;;5035732;28;20378;-53
2023/08/27 00:24:19;;;;;;;6.80;4.40;;;;;;;;;;5031103;28;20044;-57
2023/08/27 00:26:44;;;;;;;7.47;4.55;;;;;;;;;;5036466;28;20035;-54
2023/08/27 00:29:10;;;;;;;6.20;4.47;;;;;;;;;;5046353;28;20428;-55
2023/08/27 00:31:35;;;;;;;5.32;4.18;;;;;;;;;;5041974;28;20480;-55
2023/08/27 00:34:01;;;;;;;6.28;4.35;;;;;;;;;;5047573;28;20036;-55
2023/08/27 00:36:29;;;;;;;5.72;3.92;;;;;;;;;;5033122;28;20037;-51
2023/08/27 00:38:54;;;;;;;7.40;3.90;;;;;;;;;;5049185;28;20485;-52
2023/08/27 00:41:20;;;;;;;7.38;4.10;;;;;;;;;;5048848;28;20044;-57
2023/08/27 00:43:45;;;;;;;6.35;4.10;;;;;;;;;;5049478;28;20034;-58
2023/08/27 00:46:11;;;;;;;7.88;4.50;;;;;;;;;;5050985;28;20491;-54
2023/08/27 00:48:37;;;;;;;5.55;4.20;;;;;;;;;;5051641;28;20028;-55
2023/08/27 00:51:03;;;;;;;8.43;4.50;;;;;;;;;;5047045;28;20025;-52
2023/08/27 00:53:29;;;;;;;6.68;4.40;;;;;;;;;;5035337;28;20059;-54
2023/08/27 00:55:54;;;;;;;6.60;4.35;;;;;;;;;;5051121;28;20029;-57
2023/08/27 00:58:20;;;;;;;7.70;4.65;;;;;;;;;;5036772;28;20029;-56
2023/08/27 01:00:46;;;;;;;7.28;4.65;;;;;;;;;;5039280;28;20422;-55
2023/08/27 01:03:12;;;;;;;5.55;4.13;;;;;;;;;;5046479;28;20033;-55
2023/08/27 01:05:37;;;;;;;6.78;4.20;;;;;;;;;;5052184;28;20029;-54
2023/08/27 01:08:26;;;;;;;5.75;4.25;;;;;;;;;;5052527;28;20049;-55
2023/08/27 01:11:02;;;;;;;6.72;4.28;;;;;;;;;;5045730;28;20025;-52
2023/08/27 01:13:53;;;;;;;6.10;4.30;;;;;;;;;;5040380;28;20045;-54
2023/08/27 01:16:23;;;;;;;9.27;5.30;;;;;;;;;;5045765;28;20049;-53
2023/08/27 01:18:49;;;;;;;6.20;4.60;;;;;;;;;;5050347;28;20174;-51
2023/08/27 01:21:33;;;;;;;7.72;4.65;;;;;;;;;;5038068;28;20068;-51
2023/08/27 01:23:58;;;;;;;6.95;4.75;;;;;;;;;;5053779;28;20450;-54
2023/08/27 01:26:44;;;;;;;7.45;5.65;;;;;;;;;;5039326;28;20037;-56
2023/08/27 01:29:26;;;;;;;7.75;4.88;;;;;;;;;;5048210;28;20024;-52
2023/08/27 01:32:00;;;;;;;6.93;5.13;;;;;;;;;;5036522;28;20139;-54
2023/08/27 01:34:28;;;;;;;7.75;5.28;;;;;;;;;;5048802;28;20111;-55
2023/08/27 01:36:54;;;;;;;7.85;5.47;;;;;;;;;;5051576;28;20100;-54
2023/08/27 01:39:19;;;;;;;7.15;4.90;;;;;;;;;;5053868;28;20116;-51
2023/08/27 01:41:46;;;;;;;8.48;5.22;;;;;;;;;;5039879;28;20069;-51
2023/08/27 01:44:11;;;;;;;7.78;5.65;;;;;;;;;;5052288;28;20049;-52
2023/08/27 01:46:37;;;;;;;9.43;6.10;;;;;;;;;;5049718;28;20044;-54
2023/08/27 01:49:05;;;;;;;10.40;5.80;;;;;;;;;;5051189;28;20115;-54
2023/08/27 01:51:30;;;;;;;8.05;5.93;;;;;;;;;;5042167;28;20043;-51
2023/08/27 01:53:56;;;;;;;8.60;5.55;;;;;;;;;;5035078;28;20029;-52
2023/08/27 01:56:21;;;;;;;7.15;5.40;;;;;;;;;;5045795;28;20078;-53
2023/08/27 01:58:47;;;;;;;7.10;5.65;;;;;;;;;;5043233;28;20036;-54
2023/08/27 02:01:12;;;;;;;10.00;5.75;;;;;;;;;;5038275;28;20381;-53
2023/08/27 02:03:37;;;;;;;10.07;6.03;;;;;;;;;;5035232;28;20042;-52
2023/08/27 02:06:03;;;;;;;10.38;6.30;;;;;;;;;;5044005;28;20029;-54
2023/08/27 02:08:28;;;;;;;11.43;6.20;;;;;;;;;;5040594;28;20120;-54
2023/08/27 02:10:54;;;;;;;9.73;6.72;;;;;;;;;;5044519;28;20033;-56
2023/08/27 02:13:19;;;;;;;11.70;6.82;;;;;;;;;;5044175;28;20048;-54
2023/08/27 02:15:44;;;;;;;11.85;7.30;;;;;;;;;;5038912;28;20111;-53
2023/08/27 02:18:10;;;;;;;10.68;6.78;;;;;;;;;;5041219;28;20033;-55
2023/08/27 02:20:35;;;;;;;10.32;6.20;;;;;;;;;;5046102;28;20029;-56
2023/08/27 02:23:01;;;;;;;9.48;6.35;;;;;;;;;;5038470;28;20116;-54
2023/08/27 02:25:26;;;;;;;9.25;6.40;;;;;;;;;;5037477;28;20024;-57
2023/08/27 02:27:51;;;;;;;9.18;6.88;;;;;;;;;;5042280;28;20032;-54
2023/08/27 02:30:17;;;;;;;10.15;6.57;;;;;;;;;;5050199;28;20365;-56
2023/08/27 02:32:42;;;;;;;9.23;6.50;;;;;;;;;;5043105;28;20125;-55
2023/08/27 02:35:07;;;;;;;8.50;6.35;;;;;;;;;;5044468;28;20035;-57
2023/08/27 02:37:33;;;;;;;9.32;6.38;;;;;;;;;;5050403;28;20519;-55
2023/08/27 02:39:58;;;;;;;9.60;6.43;;;;;;;;;;5050698;28;20040;-55
2023/08/27 02:42:24;;;;;;;11.43;7.00;;;;;;;;;;5041044;28;20024;-53
2023/08/27 02:44:49;;;;;;;8.68;6.43;;;;;;;;;;5038939;28;20037;-54
2023/08/27 02:47:16;;;;;;;10.38;6.25;;;;;;;;;;5035367;28;20037;-54
2023/08/27 02:49:42;;;;;;;15.23;6.60;;;;;;;;;;5047816;28;20053;-54
2023/08/27 02:52:07;;;;;;;7.30;6.13;;;;;;;;;;5034545;28;20060;-57
2023/08/27 02:54:32;;;;;;;8.43;6.53;;;;;;;;;;5037072;28;20116;-52
2023/08/27 02:56:58;;;;;;;9.57;6.20;;;;;;;;;;5049418;28;20048;-51
2023/08/27 02:59:23;;;;;;;9.32;5.65;;;;;;;;;;5051134;28;20036;-53
2023/08/27 03:01:51;;;;;;;7.90;5.93;;;;;;;;;;5039604;28;20040;-52
2023/08/27 03:04:16;;;;;;;7.68;5.65;;;;;;;;;;5043632;28;20111;-56
2023/08/27 03:06:42;;;;;;;9.23;5.78;;;;;;;;;;5045068;28;20108;-55
2023/08/27 03:09:07;;;;;;;9.35;5.90;;;;;;;;;;5049634;28;20465;-56
2023/08/27 03:11:33;;;;;;;9.35;6.10;;;;;;;;;;5045562;28;20111;-56
2023/08/27 03:13:58;;;;;;;12.73;5.65;;;;;;;;;;5050053;28;20465;-56
2023/08/27 03:16:24;;;;;;;8.43;5.63;;;;;;;;;;5036021;28;20036;-54
2023/08/27 03:18:49;;;;;;;8.05;5.93;;;;;;;;;;5032347;28;20029;-54
2023/08/27 03:21:14;;;;;;;10.60;6.30;;;;;;;;;;5040461;28;20040;-52
2023/08/27 03:23:40;;;;;;;9.45;5.82;;;;;;;;;;5034634;28;20045;-53
2023/08/27 03:26:05;;;;;;;9.23;5.80;;;;;;;;;;5051529;28;20523;-54
2023/08/27 03:28:30;;;;;;;10.00;6.03;;;;;;;;;;5032669;28;20037;-57
2023/08/27 03:30:56;;;;;;;7.93;5.60;;;;;;;;;;5039920;28;20079;-55
2023/08/27 03:33:21;;;;;;;9.02;5.90;;;;;;;;;;5050546;28;20043;-53
2023/08/27 03:35:55;;;;;;;8.88;5.45;;;;;;;;;;5043463;28;20032;-50
2023/08/27 03:38:20;;;;;;;9.75;5.45;;;;;;;;;;5035083;28;20075;-53
2023/08/27 03:40:49;;;;;;;8.60;5.70;;;;;;;;;;5047511;28;20037;-51
2023/08/27 03:43:15;;;;;;;7.47;5.97;;;;;;;;;;5050374;28;20370;-55
2023/08/27 03:45:41;;;;;;;10.68;6.45;;;;;;;;;;5048539;28;20025;-54
2023/08/27 03:48:06;;;;;;;9.88;6.18;;;;;;;;;;5048270;28;20095;-52
2023/08/27 03:50:31;;;;;;;7.97;5.10;;;;;;;;;;5048920;28;20052;-54
2023/08/27 03:52:57;;;;;;;11.63;5.40;;;;;;;;;;5041678;28;20035;-51
2023/08/27 03:55:23;;;;;;;9.55;5.70;;;;;;;;;;5045522;28;20079;-55
2023/08/27 03:57:50;;;;;;;8.30;5.13;;;;;;;;;;5039917;28;20381;-54
2023/08/27 04:00:16;;;;;;;8.13;6.03;;;;;;;;;;5039628;28;20037;-54
2023/08/27 04:02:43;;;;;;;9.02;5.68;;;;;;;;;;5046142;28;20032;-54
2023/08/27 04:05:09;;;;;;;10.13;6.00;;;;;;;;;;5049334;28;20036;-53
2023/08/27 04:07:34;;;;;;;7.57;5.30;;;;;;;;;;5045998;28;20071;-54
2023/08/27 04:10:00;;;;;;;11.07;6.10;;;;;;;;;;5039316;28;20431;-57
2023/08/27 04:12:25;;;;;;;11.38;6.43;;;;;;;;;;5050174;28;20032;-53
2023/08/27 04:14:51;;;;;;;12.80;6.30;;;;;;;;;;5044431;28;20045;-55
2023/08/27 04:17:16;;;;;;;7.93;5.75;;;;;;;;;;5042431;28;20045;-56
2023/08/27 04:19:42;;;;;;;9.05;5.60;;;;;;;;;;5038744;28;20037;-55
2023/08/27 04:22:08;;;;;;;9.43;5.90;;;;;;;;;;5053680;28;20519;-56
2023/08/27 04:24:33;;;;;;;9.55;5.63;;;;;;;;;;5052891;28;20044;-58
2023/08/27 04:26:58;;;;;;;8.85;5.80;;;;;;;;;;5043785;28;20496;-55
2023/08/27 04:29:26;;;;;;;7.78;5.75;;;;;;;;;;5053477;28;20029;-56
2023/08/27 04:31:52;;;;;;;9.82;5.90;;;;;;;;;;5051497;28;20041;-55
2023/08/27 04:34:17;;;;;;;8.63;5.60;;;;;;;;;;5051771;28;20115;-57
2023/08/27 04:36:42;;;;;;;13.13;6.78;;;;;;;;;;5052869;28;20035;-53
2023/08/27 04:39:08;;;;;;;7.80;5.75;;;;;;;;;;5047027;28;20455;-57
2023/08/27 04:41:34;;;;;;;7.13;5.20;;;;;;;;;;5052261;28;20040;-56
2023/08/27 04:43:59;;;;;;;7.07;5.53;;;;;;;;;;5047647;28;20033;-54
2023/08/27 04:46:25;;;;;;;7.07;5.13;;;;;;;;;;5053286;28;20102;-57
2023/08/27 04:48:50;;;;;;;12.02;6.60;;;;;;;;;;5051455;28;20120;-55
2023/08/27 04:51:16;;;;;;;9.68;6.00;;;;;;;;;;5044403;28;20045;-55
2023/08/27 04:53:41;;;;;;;9.55;6.22;;;;;;;;;;5035630;28;20120;-56
2023/08/27 04:56:07;;;;;;;9.93;5.93;;;;;;;;;;5033888;28;20033;-54
2023/08/27 04:58:33;;;;;;;10.25;6.20;;;;;;;;;;5044997;28;20033;-56
2023/08/27 05:00:58;;;;;;;10.40;6.00;;;;;;;;;;5052645;28;20040;-55
2023/08/27 05:03:23;;;;;;;9.95;6.25;;;;;;;;;;5045731;28;20079;-56
2023/08/27 05:05:53;;;;;;;8.90;6.13;;;;;;;;;;5033374;28;20071;-54
2023/08/27 05:08:19;;;;;;;9.98;6.30;;;;;;;;;;5034072;28;20466;-52
2023/08/27 05:10:44;;;;;;;11.23;6.00;;;;;;;;;;5036161;28;20065;-51
2023/08/27 05:13:10;;;;;;;9.40;6.15;;;;;;;;;;5040063;28;20046;-56
2023/08/27 05:15:35;;;;;;;10.55;6.57;;;;;;;;;;5036252;28;20124;-56
2023/08/27 05:18:00;;;;;;;9.27;6.05;;;;;;;;;;5048757;28;20052;-57
2023/08/27 05:20:26;;;;;;;11.35;6.25;;;;;;;;;;5048700;28;20068;-54
2023/08/27 05:22:51;;;;;;;9.18;5.95;;;;;;;;;;5048670;28;20024;-56
2023/08/27 05:25:17;;;;;;;10.38;5.88;;;;;;;;;;5053941;28;20100;-53
2023/08/27 05:27:45;;;;;;;10.48;5.57;;;;;;;;;;5045117;28;20041;-55
2023/08/27 05:30:16;;;;;;;8.10;5.70;;;;;;;;;;5038183;28;20031;-55
2023/08/27 05:32:43;;;;;;;9.48;5.38;;;;;;;;;;5046349;28;20037;-52
2023/08/27 05:35:09;;;;;;;6.70;5.00;;;;;;;;;;5036434;28;20086;-53
2023/08/27 05:37:35;;;;;;;8.73;4.88;;;;;;;;;;5048430;28;20037;-54
2023/08/27 05:40:00;;;;;;;7.28;5.03;;;;;;;;;;5052834;28;20167;-55
2023/08/27 05:42:26;;;;;;;8.23;4.40;;;;;;;;;;5052950;28;20033;-54
2023/08/27 05:44:51;;;;;;;6.05;3.90;;;;;;;;;;5052607;28;20058;-54
2023/08/27 05:47:17;;;;;;;6.25;4.00;;;;;;;;;;5052568;28;20033;-55
2023/08/27 05:49:45;;;;;;;6.72;4.20;;;;;;;;;;5052541;28;20025;-54
2023/08/27 05:52:11;;;;;;;5.20;3.75;;;;;;;;;;5053283;28;20035;-55
2023/08/27 05:54:36;;;;;;;6.25;3.67;;;;;;;;;;5052840;28;20111;-57
2023/08/27 05:57:04;;;;;;;7.10;3.50;;;;;;;;;;5052204;28;20058;-57
2023/08/27 05:59:29;;;;;;;7.97;3.10;;;;;;;;;;5051230;28;20078;-56
2023/08/27 06:01:55;;;;;;;5.72;3.70;;;;;;;;;;5050843;28;20236;-56
2023/08/27 06:04:20;;;;;;;8.77;3.65;;;;;;;;;;5053012;28;20457;-56
2023/08/27 06:06:46;;;;;;;6.07;3.67;;;;;;;;;;5050783;28;20534;-56
2023/08/27 06:09:11;;;;;;;5.88;3.90;;;;;;;;;;5052765;28;20040;-55
2023/08/27 06:11:36;;;;;;;5.30;3.92;;;;;;;;;;5050840;28;20449;-56
2023/08/27 06:14:02;;;;;;;7.35;4.22;;;;;;;;;;5051857;28;20473;-57
2023/08/27 06:16:27;;;;;;;6.95;3.95;;;;;;;;;;5052164;28;20037;-56
2023/08/27 06:18:52;;;;;;;7.82;4.78;;;;;;;;;;5051534;28;20460;-54
2023/08/27 06:21:18;;;;;;;6.95;4.80;;;;;;;;;;5052838;28;20124;-56
2023/08/27 06:23:43;;;;;;;9.85;5.40;;;;;;;;;;5046279;28;20112;-57
2023/08/27 06:26:09;;;;;;;9.05;5.25;;;;;;;;;;5032724;28;20021;-54
2023/08/27 06:28:34;;;;;;;9.95;6.10;;;;;;;;;;5042648;28;20025;-55
2023/08/27 06:31:00;;;;;;;8.85;5.50;;;;;;;;;;5051514;28;20044;-60
2023/08/27 06:33:26;;;;;;;7.43;5.72;;;;;;;;;;5052947;28;20049;-60
2023/08/27 06:35:52;;;;;;;9.73;6.30;;;;;;;;;;5048534;28;20461;-59
2023/08/27 06:38:18;;;;;;;11.73;6.47;;;;;;;;;;5031407;28;20040;-59
2023/08/27 06:40:44;;;;;;;8.38;5.38;;;;;;;;;;5049643;28;20029;-60
2023/08/27 06:43:10;;;;;;;7.80;5.18;;;;;;;;;;5052107;28;20033;-59
2023/08/27 06:45:35;;;;;;;6.97;4.53;;;;;;;;;;5052078;28;20036;-59
2023/08/27 06:48:01;;;;;;;8.52;4.22;;;;;;;;;;5050639;28;20677;-60
2023/08/27 06:50:26;;;;;;;7.57;3.78;;;;;;;;;;5051962;28;20447;-59
2023/08/27 06:52:51;;;;;;;6.68;3.63;;;;;;;;;;5050083;28;20044;-59
2023/08/27 06:55:20;;;;;;;6.65;3.88;;;;;;;;;;5052216;28;20028;-59
2023/08/27 06:57:45;;;;;;;7.30;3.90;;;;;;;;;;5051086;28;20028;-59
2023/08/27 07:00:11;;;;;;;7.25;4.22;;;;;;;;;;5043355;28;20036;-58
2023/08/27 07:02:37;;;;;;;8.32;3.67;;;;;;;;;;5043201;28;20059;-59
2023/08/27 07:05:08;;;;;;;7.10;3.58;;;;;;;;;;5051564;28;20020;-58
2023/08/27 07:07:33;;;;;;;;;;;;;;;;;;5052252;28;20029;-59
2023/08/27 07:09:59;;;;;;;6.28;3.50;;;;;;;;;;5050008;28;20050;-58
2023/08/27 07:12:24;;;;;;;9.13;3.95;;;;;;;;;;5049659;28;20056;-59
2023/08/27 07:14:49;;;;;;;4.82;3.50;;;;;;;;;;5049946;28;20327;-58
2023/08/27 07:17:15;;;;;;;5.70;3.55;;;;;;;;;;5051669;28;20112;-59
2023/08/27 07:19:41;;;;;;;7.38;3.80;;;;;;;;;;5051393;28;20454;-59
2023/08/27 07:22:07;;;;;;;5.07;3.22;;;;;;;;;;5051229;28;20029;-58
2023/08/27 07:24:33;;;;;;;5.32;3.17;;;;;;;;;;5040424;28;20025;-59
2023/08/27 07:26:58;;;;;;;6.05;3.28;;;;;;;;;;5031030;28;20111;-59
2023/08/27 07:29:24;;;;;;;6.00;3.50;;;;;;;;;;5032044;28;20076;-59
2023/08/27 07:31:49;;;;;;;7.05;3.58;;;;;;;;;;5042147;28;20116;-59
2023/08/27 07:34:15;;;;;;;5.68;3.30;;;;;;;;;;5033561;28;20456;-60
2023/08/27 07:36:40;;;;;;;6.38;3.20;;;;;;;;;;5048553;28;20037;-60
2023/08/27 07:39:06;;;;;;;6.20;3.50;;;;;;;;;;5042107;28;20049;-59
2023/08/27 07:41:31;;;;;;;6.10;3.33;;;;;;;;;;5034357;28;20021;-60
2023/08/27 07:43:56;;;;;;;6.05;3.40;;;;;;;;;;5050605;28;20052;-60
2023/08/27 07:46:22;;;;;;;5.13;3.50;;;;;;;;;;5046323;28;20462;-60
2023/08/27 07:48:50;;;;;;;8.02;4.20;;;;;;;;;;5049399;28;20079;-61
2023/08/27 07:51:15;;;;;;;10.63;5.20;;;;;;;;;;5054559;28;20021;-61
2023/08/27 07:53:41;;;;;;;6.78;4.60;;;;;;;;;;5055030;28;20060;-61
2023/08/27 07:56:06;;;;;;;8.25;5.00;;;;;;;;;;5045707;28;20047;-61
2023/08/27 07:58:34;;;;;;;7.30;4.78;;;;;;;;;;5055458;28;20139;-61
2023/08/27 08:01:02;;;;;;;7.78;5.63;;;;;;;;;;5053309;28;20044;-60
2023/08/27 08:03:28;;;;;;;7.88;5.88;;;;;;;;;;5054646;28;20048;-60
2023/08/27 08:05:53;;;;;;;9.57;5.93;;;;;;;;;;5054201;28;20021;-61
2023/08/27 08:08:18;;;;;;;9.13;5.53;;;;;;;;;;5041977;28;20440;-60
2023/08/27 08:10:44;;;;;;;9.40;6.40;;;;;;;;;;5047298;28;20033;-61
2023/08/27 08:13:09;;;;;;;11.38;6.88;;;;;;;;;;5052704;28;20041;-61
2023/08/27 08:15:35;;;;;;;10.48;6.88;;;;;;;;;;5055079;28;20029;-61
2023/08/27 08:18:01;;;;;;;8.55;6.30;;;;;;;;;;5054162;28;20032;-61
2023/08/27 08:20:26;;;;;;;9.38;7.13;;;;;;;;;;5052864;28;20108;-62
2023/08/27 08:22:51;;;;;;;10.73;7.32;;;;;;;;;;5053898;28;20029;-61
2023/08/27 08:25:17;;;;;;;10.05;7.40;;;;;;;;;;5054790;28;20025;-62
2023/08/27 08:27:42;;;;;;;10.43;7.32;;;;;;;;;;5052814;28;20040;-62
2023/08/27 08:30:09;;;;;;;10.23;7.88;;;;;;;;;;5054055;28;20021;-61
2023/08/27 08:32:34;;;;;;;12.98;8.43;;;;;;;;;;5053606;28;20029;-61
2023/08/27 08:35:00;;;;;;;12.55;8.48;;;;;;;;;;5052798;28;20606;-61
2023/08/27 08:37:25;;;;;;;10.00;7.63;;;;;;;;;;5054129;28;20037;-62
2023/08/27 08:39:51;;;;;;;9.73;7.75;;;;;;;;;;5053523;28;20033;-61
2023/08/27 08:42:25;;;;;;;12.27;8.32;;;;;;;;;;5054393;28;20036;-60
2023/08/27 08:45:05;;;;;;;11.55;7.80;;;;;;;;;;5052611;28;20033;-61
2023/08/27 08:47:35;;;;;;;10.60;8.02;;;;;;;;;;5054577;28;20033;-61
2023/08/27 08:50:05;;;;;;;10.63;8.32;;;;;;;;;;5052871;28;20035;-62
2023/08/27 08:52:41;;;;;;;12.20;8.48;;;;;;;;;;5055424;28;20389;-62
2023/08/27 08:55:12;;;;;;;11.68;7.93;;;;;;;;;;5053546;28;20041;-61
2023/08/27 08:57:49;;;;;;;10.52;7.50;;;;;;;;;;5054105;28;20047;-62
2023/08/27 09:00:16;;;;;;;13.23;8.77;;;;;;;;;;5053413;28;20078;-62
2023/08/27 09:02:42;;;;;;;9.93;8.48;;;;;;;;;;5052409;28;20120;-61
2023/08/27 09:05:12;;;;;;;9.57;7.28;;;;;;;;;;5052771;28;20303;-62
2023/08/27 09:07:38;;;;;;;10.10;7.70;;;;;;;;;;5054748;28;20040;-62
2023/08/27 09:10:05;;;;;;;10.90;7.00;;;;;;;;;;5051132;28;20035;-61
2023/08/27 09:12:30;;;;;;;11.35;7.15;;;;;;;;;;5053929;28;20029;-60
2023/08/27 09:14:57;;;;;;;8.68;7.30;;;;;;;;;;5053168;28;20116;-59
2023/08/27 09:17:23;;;;;;;8.73;7.30;;;;;;;;;;5052054;28;20040;-59
2023/08/27 09:19:51;;;;;;;9.68;7.18;;;;;;;;;;5053115;28;20128;-59
2023/08/27 09:22:17;;;;;;;10.88;7.57;;;;;;;;;;5050066;28;20039;-61
2023/08/27 09:24:43;;;;;;;9.45;7.22;;;;;;;;;;5049756;28;20079;-60
2023/08/27 09:27:11;;;;;;;9.80;6.82;;;;;;;;;;5052362;28;20676;-59
2023/08/27 09:29:37;;;;;;;7.90;6.55;;;;;;;;;;5046678;28;20094;-59
2023/08/27 09:32:03;;;;;;;8.73;6.35;;;;;;;;;;5047383;28;20032;-59
2023/08/27 09:34:28;;;;;;;9.27;5.72;;;;;;;;;;5040181;28;20492;-56
2023/08/27 09:36:54;;;;;;;7.40;5.47;;;;;;;;;;5052525;28;20029;-58
2023/08/27 09:39:19;;;;;;;7.47;5.57;;;;;;;;;;5052856;28;20029;-58
2023/08/27 09:41:46;;;;;;;7.05;5.85;;;;;;;;;;5038117;28;20033;-57
2023/08/27 09:44:13;;;;;;;7.28;5.55;;;;;;;;;;5031180;28;20059;-56
2023/08/27 09:46:42;;;;;;;6.93;5.32;;;;;;;;;;5033285;28;20114;-58
2023/08/27 09:49:08;;;;;;;11.95;6.25;;;;;;;;;;5031114;28;20103;-55
2023/08/27 09:51:35;;;;;;;8.95;6.45;;;;;;;;;;5042554;28;20457;-57
2023/08/27 09:54:12;;;;;;;10.07;6.47;;;;;;;;;;5052297;28;20128;-55
2023/08/27 09:56:38;;;;;;;11.27;7.93;;;;;;;;;;5052194;28;20037;-56
2023/08/27 09:59:05;;;;;;;11.32;7.43;;;;;;;;;;5035344;28;20397;-56
2023/08/27 10:01:36;;;;;;;11.48;7.95;;;;;;;;;;5033079;28;20038;-57
2023/08/27 10:04:07;;;;;;;8.73;7.03;;;;;;;;;;5063033;28;20026;-57
2023/08/27 10:06:36;;;;;;;7.70;6.40;;;;;;;;;;5032819;28;20028;-57
2023/08/27 10:09:03;;;;;;;9.00;6.63;;;;;;;;;;5049407;28;20037;-56
2023/08/27 10:11:29;;;;;;;8.82;6.43;;;;;;;;;;5052536;28;20102;-57
2023/08/27 10:13:57;;;;;;;10.05;6.20;;;;;;;;;;5049501;28;20477;-52
2023/08/27 10:16:23;;;;;;;7.82;6.10;;;;;;;;;;5042534;28;20182;-59
2023/08/27 10:18:48;;;;;;;8.00;6.25;;;;;;;;;;5043039;28;20032;-58
2023/08/27 10:21:15;;;;;;;7.97;6.47;;;;;;;;;;5037860;28;20461;-58
2023/08/27 10:23:42;;;;;;;7.30;6.00;;;;;;;;;;5051479;28;20174;-59
2023/08/27 10:26:08;;;;;;;9.93;6.50;;;;;;;;;;5051170;28;20075;-58
2023/08/27 10:28:35;;;;;;;7.38;6.10;;;;;;;;;;5052623;28;20041;-58
2023/08/27 10:31:01;;;;;;;7.00;6.28;;;;;;;;;;5051502;28;20128;-57
2023/08/27 10:33:27;;;;;;;10.48;6.30;;;;;;;;;;5052062;28;20519;-56
2023/08/27 10:35:54;;;;;;;8.32;6.47;;;;;;;;;;5033569;28;20079;-56
2023/08/27 10:38:23;;;;;;;8.18;6.53;;;;;;;;;;5030663;28;20434;-56
2023/08/27 10:40:51;;;;;;;9.35;6.45;;;;;;;;;;5048366;28;20040;-58
2023/08/27 10:43:20;;;;;;;7.22;6.07;;;;;;;;;;5050613;28;20041;-58
2023/08/27 10:45:48;;;;;;;7.82;5.88;;;;;;;;;;5051344;28;20033;-59
2023/08/27 10:48:25;;;;;;;7.45;5.95;;;;;;;;;;5050961;28;20051;-60
2023/08/27 10:51:14;;;;;;;8.80;5.65;;;;;;;;;;5052185;28;20048;-60
2023/08/27 10:53:48;;;;;;;8.88;4.80;;;;;;;;;;5029555;28;20041;-57
2023/08/27 10:56:35;;;;;;;5.78;4.18;;;;;;;;;;5048060;28;20108;-62
2023/08/27 10:59:24;;;;;;;6.72;4.38;;;;;;;;;;5048543;28;20102;-57
2023/08/27 11:01:56;;;;;;;5.82;4.07;;;;;;;;;;5051195;28;20083;-57
2023/08/27 11:04:36;;;;;;;5.75;4.30;;;;;;;;;;5050732;28;20040;-58
2023/08/27 11:07:28;;;;;;;6.00;4.45;;;;;;;;;;5050452;28;20107;-58
2023/08/27 11:09:55;;;;;;;6.05;3.60;;;;;;;;;;5036870;28;20104;-57
2023/08/27 11:12:48;;;;;;;6.78;3.95;;;;;;;;;;5051033;28;20048;-58
2023/08/27 11:15:15;;;;;;;7.15;3.60;;;;;;;;;;5045686;28;20048;-57
2023/08/27 11:17:41;;;;;;;5.15;3.55;;;;;;;;;;5042671;28;20067;-58
2023/08/27 11:20:28;;;;;;;6.22;3.28;;;;;;;;;;5050115;28;20029;-58
2023/08/27 11:22:59;;;;;;;6.65;3.08;;;;;;;;;;5050604;28;20037;-57
2023/08/27 11:25:29;;;;;;;5.03;2.78;;;;;;;;;;5051164;28;20048;-57
2023/08/27 11:27:58;;;;;;;4.45;3.10;;;;;;;;;;5049478;28;20098;-58
2023/08/27 11:30:24;;;;;;;4.40;2.20;;;;;;;;;;5051438;28;20063;-58
2023/08/27 11:32:51;;;;;;;3.40;1.80;;;;;;;;;;5043855;28;20117;-57
2023/08/27 11:35:22;;;;;;;3.55;1.95;;;;;;;;;;5046919;28;20192;-58
2023/08/27 11:37:47;;;;;;;3.35;1.90;;;;;;;;;;5051572;28;20047;-56
2023/08/27 11:40:18;;;;;;;3.25;1.70;;;;;;;;;;5051005;28;20107;-58
2023/08/27 11:42:50;;;;;;;3.03;1.65;;;;;;;;;;5050877;28;20036;-58
2023/08/27 11:45:16;;;;;;;3.90;1.55;;;;;;;;;;5045040;28;20041;-56
2023/08/27 11:47:44;;;;;;;4.00;1.80;;;;;;;;;;5031029;28;20032;-58
2023/08/27 11:50:11;;;;;;;5.57;1.90;;;;;;;;;;5045215;28;20063;-57
2023/08/27 11:52:38;;;;;;;4.15;2.05;;;;;;;;;;5051156;28;20439;-58
2023/08/27 11:55:05;;;;;;;2.38;1.80;;;;;;;;;;5050023;28;20033;-58
2023/08/27 11:57:30;;;;;;;2.50;1.80;;;;;;;;;;5046262;28;20089;-58
2023/08/27 11:59:56;;;;;;;3.00;1.70;;;;;;;;;;5051474;28;20104;-57
2023/08/27 12:02:21;;;;;;;2.67;1.50;;;;;;;;;;5050027;28;20032;-57
2023/08/27 12:04:47;;;;;;;3.08;1.63;;;;;;;;;;5051358;28;20539;-58
2023/08/27 12:07:24;;;;;;;3.00;1.67;;;;;;;;;;5034598;28;20048;-59
2023/08/27 12:09:50;;;;;;;3.33;1.40;;;;;;;;;;5037457;28;20038;-57
2023/08/27 12:12:15;;;;;;;3.35;1.60;;;;;;;;;;5044860;28;20075;-57
2023/08/27 12:14:41;;;;;;;3.78;1.80;;;;;;;;;;5050859;28;20132;-56
2023/08/27 12:17:08;;;;;;;3.28;1.90;;;;;;;;;;5050083;28;20029;-56
2023/08/27 12:19:35;;;;;;;4.10;1.90;;;;;;;;;;5050183;28;20065;-56
2023/08/27 12:22:01;;;;;;;3.03;1.73;;;;;;;;;;5047777;28;20084;-57
2023/08/27 12:24:36;;;;;;;3.40;1.77;;;;;;;;;;5031663;28;20065;-56
2023/08/27 12:27:04;;;;;;;4.50;2.10;;;;;;;;;;5030077;28;20417;-56
2023/08/27 12:29:36;;;;;;;3.97;1.95;;;;;;;;;;5030939;28;20424;-58
2023/08/27 12:32:12;;;;;;;2.95;1.95;;;;;;;;;;5030654;28;20498;-57
2023/08/27 12:34:38;;;;;;;4.78;2.10;;;;;;;;;;5039479;28;20509;-57
2023/08/27 12:37:04;;;;;;;8.30;2.10;;;;;;;;;;5049558;28;20118;-55
2023/08/27 12:39:31;;;;;;;3.28;1.90;;;;;;;;;;5054535;28;20064;-56
2023/08/27 12:41:58;;;;;;;3.10;1.60;;;;;;;;;;5054600;28;20120;-58
2023/08/27 12:44:23;;;;;;;3.13;1.50;;;;;;;;;;5050585;28;20048;-56
2023/08/27 12:46:49;;;;;;;2.38;1.35;;;;;;;;;;5048374;28;20029;-58
2023/08/27 12:49:14;;;;;;;3.33;1.42;;;;;;;;;;5045456;28;20037;-58
2023/08/27 12:51:40;;;;;;;3.58;1.60;;;;;;;;;;5033892;28;20029;-57
2023/08/27 12:54:05;;;;;;;3.92;1.58;;;;;;;;;;5032997;28;20068;-57
2023/08/27 12:56:32;;;;;;;2.92;1.42;;;;;;;;;;5044858;28;20025;-59
2023/08/27 12:58:57;;;;;;;2.28;1.20;;;;;;;;;;5049672;28;20492;-61
2023/08/27 13:01:23;;;;;;;3.83;1.42;;;;;;;;;;5052758;28;20021;-61
2023/08/27 13:03:48;;;;;;;3.60;1.65;;;;;;;;;;5052360;28;20033;-61
2023/08/27 13:06:14;;;;;;;2.20;1.38;;;;;;;;;;5053393;28;20025;-61
2023/08/27 13:08:39;;;;;;;2.20;1.30;;;;;;;;;;5053897;28;20385;-60
2023/08/27 13:11:04;;;;;;;4.75;1.40;;;;;;;;;;5035191;28;20029;-61
2023/08/27 13:13:30;;;;;;;2.90;1.48;;;;;;;;;;5037536;28;20508;-61
2023/08/27 13:15:58;;;;;;;3.58;1.95;;;;;;;;;;5049111;28;20130;-60
2023/08/27 13:18:23;;;;;;;4.88;1.45;;;;;;;;;;5052873;28;20025;-60
2023/08/27 13:20:48;;;;;;;2.72;1.50;;;;;;;;;;5051065;28;20047;-60
2023/08/27 13:23:14;;;;;;;2.65;1.50;;;;;;;;;;5033008;28;20053;-61
2023/08/27 13:25:40;;;;;;;4.45;1.60;;;;;;;;;;5041823;28;20461;-61
2023/08/27 13:28:06;;;;;;;4.70;1.50;;;;;;;;;;5036385;28;20369;-62
2023/08/27 13:30:32;;;;;;;4.47;1.40;;;;;;;;;;5053785;28;20033;-59
2023/08/27 13:32:58;;;;;;;3.30;1.00;;;;;;;;;;5053571;28;20171;-59
2023/08/27 13:35:24;;;;;;;0.93;0.80;;;;;;;;;;5051479;28;20100;-60
2023/08/27 13:37:50;;;;;;;3.85;1.08;;;;;;;;;;5041203;28;20030;-62
2023/08/27 13:40:15;;;;;;;1.42;1.00;;;;;;;;;;5031627;28;20416;-61
2023/08/27 13:42:40;;;;;;;4.55;1.40;;;;;;;;;;5068517;28;20468;-60
2023/08/27 13:45:06;;;;;;;2.20;1.20;;;;;;;;;;5051488;28;20036;-60
2023/08/27 13:47:32;;;;;;;4.35;1.40;;;;;;;;;;5052427;28;20527;-58
2023/08/27 13:49:58;;;;;;;3.45;1.45;;;;;;;;;;5036206;28;20437;-58
2023/08/27 13:52:24;;;;;;;3.20;1.48;;;;;;;;;;5048413;28;20065;-59
2023/08/27 13:54:52;;;;;;;5.05;1.70;;;;;;;;;;5051606;28;20041;-59
2023/08/27 13:57:17;;;;;;;3.33;1.83;;;;;;;;;;5052042;28;20029;-60
2023/08/27 13:59:42;;;;;;;6.80;2.30;;;;;;;;;;5051897;28;20035;-60
2023/08/27 14:02:08;;;;;;;3.92;2.22;;;;;;;;;;5050537;28;20041;-61
2023/08/27 14:04:36;;;;;;;3.63;2.30;;;;;;;;;;5037738;28;20037;-59
2023/08/27 14:07:03;;;;;;;4.63;2.55;;;;;;;;;;5039088;28;20037;-61
2023/08/27 14:09:30;;;;;;;5.70;2.42;;;;;;;;;;5051110;28;20063;-61
2023/08/27 14:11:55;;;;;;;5.97;2.60;;;;;;;;;;5053053;28;20028;-61
2023/08/27 14:14:21;;;;;;;3.67;2.78;;;;;;;;;;5052118;28;20510;-62
2023/08/27 14:16:47;;;;;;;5.85;2.80;;;;;;;;;;5053124;28;20032;-61
2023/08/27 14:19:12;;;;;;;5.45;3.10;;;;;;;;;;5051795;28;20054;-62
2023/08/27 14:21:37;;;;;;;5.13;3.20;;;;;;;;;;5048932;28;20037;-61
2023/08/27 14:24:03;;;;;;;5.38;2.05;;;;;;;;;;5053776;28;20033;-61
2023/08/27 14:26:28;;;;;;;6.00;2.20;;;;;;;;;;5051772;28;20132;-61
2023/08/27 14:28:54;;;;;;;3.22;1.70;;;;;;;;;;5052452;28;20393;-61
2023/08/27 14:31:19;;;;;;;4.95;1.80;;;;;;;;;;5051796;28;20094;-61
2023/08/27 14:33:44;;;;;;;3.05;1.80;;;;;;;;;;5051243;28;20037;-62
2023/08/27 14:36:10;;;;;;;2.13;1.50;;;;;;;;;;5051701;28;20025;-62
2023/08/27 14:38:35;;;;;;;5.10;1.40;;;;;;;;;;5052232;28;20373;-62